createdAt,value
2023-04-01T00:00:45.238Z,6.55
2023-04-01T00:03:48.319Z,4.72
2023-04-01T00:06:50.986Z,4.68
2023-04-01T00:09:53.440Z,5.47
2023-04-01T00:12:56.075Z,4.72
2023-04-01T00:16:00.101Z,3.97
2023-04-01T00:19:02.644Z,4.28
2023-04-01T00:22:05.250Z,4.40
2023-04-01T00:25:08.060Z,4.88
2023-04-01T00:28:10.804Z,7.13
2023-04-01T00:31:13.348Z,3.92
2023-04-01T00:34:16.299Z,4.07
2023-04-01T00:37:19.093Z,5.97
2023-04-01T00:40:33.265Z,4.55
2023-04-01T00:43:36.054Z,4.40
2023-04-01T00:46:39.366Z,4.15
2023-04-01T00:49:43.310Z,4.32
2023-04-01T00:52:45.885Z,4.07
2023-04-01T00:56:01.107Z,5.05
2023-04-01T00:59:09.668Z,5.13
2023-04-01T01:02:12.985Z,3.60
2023-04-01T01:05:16.004Z,4.20
2023-04-01T01:08:48.758Z,5.97
2023-04-01T01:12:09.664Z,5.30
2023-04-01T01:15:22.769Z,5.10
2023-04-01T01:18:28.153Z,6.00
2023-04-01T01:21:49.573Z,6.95
2023-04-01T01:25:23.572Z,5.18
2023-04-01T01:29:03.436Z,4.82
2023-04-01T01:32:27.601Z,6.82
2023-04-01T01:35:45.148Z,4.88
2023-04-01T01:38:52.416Z,4.63
2023-04-01T01:41:55.341Z,5.68
2023-04-01T01:44:58.203Z,7.00
2023-04-01T01:48:00.978Z,6.65
2023-04-01T01:51:07.337Z,5.78
2023-04-01T01:54:14.438Z,6.10
2023-04-01T01:57:16.960Z,9.02
2023-04-01T02:00:22.975Z,5.60
2023-04-01T02:03:26.421Z,5.82
2023-04-01T02:06:30.136Z,8.40
2023-04-01T02:09:32.758Z,6.05
2023-04-01T02:12:35.498Z,6.45
2023-04-01T02:15:41.410Z,6.25
2023-04-01T02:18:44.715Z,5.40
2023-04-01T02:21:47.266Z,4.97
2023-04-01T02:24:50.976Z,5.45
2023-04-01T02:27:53.367Z,4.60
2023-04-01T02:30:56.156Z,5.28
2023-04-01T02:33:58.644Z,6.22
2023-04-01T02:37:01.436Z,5.38
2023-04-01T02:40:07.449Z,4.88
2023-04-01T02:43:09.944Z,5.82
2023-04-01T02:46:12.475Z,6.50
2023-04-01T02:49:15.293Z,4.20
2023-04-01T02:52:17.809Z,5.80
2023-04-01T02:55:20.407Z,6.20
2023-04-01T02:58:22.927Z,5.38
2023-04-01T03:01:25.697Z,5.55
2023-04-01T03:04:28.203Z,4.93
2023-04-01T03:07:30.766Z,5.82
2023-04-01T03:10:33.646Z,4.50
2023-04-01T03:13:36.504Z,4.38
2023-04-01T03:16:39.013Z,4.55
2023-04-01T03:19:42.052Z,4.90
2023-04-01T03:22:45.510Z,5.45
2023-04-01T03:25:48.423Z,3.83
2023-04-01T03:28:51.816Z,3.65
2023-04-01T03:31:54.331Z,4.43
2023-04-01T03:34:56.957Z,4.50
2023-04-01T03:37:59.605Z,5.20
2023-04-01T03:41:02.348Z,3.13
2023-04-01T03:47:10.146Z,3.50
2023-04-01T03:50:12.634Z,4.85
2023-04-01T03:53:16.333Z,6.20
2023-04-01T03:56:21.508Z,7.18
2023-04-01T03:59:24.071Z,6.45
2023-04-01T04:02:26.900Z,6.22
2023-04-01T04:05:29.696Z,5.82
2023-04-01T04:08:32.347Z,6.35
2023-04-01T04:11:34.842Z,7.35
2023-04-01T04:14:38.274Z,6.88
2023-04-01T04:17:40.984Z,6.47
2023-04-01T04:20:49.576Z,5.68
2023-04-01T04:23:52.551Z,6.55
2023-04-01T04:26:56.376Z,4.80
2023-04-01T04:29:58.847Z,5.03
2023-04-01T04:33:01.888Z,4.30
2023-04-01T04:36:05.361Z,5.65
2023-04-01T04:39:08.151Z,5.03
2023-04-01T04:42:13.398Z,4.18
2023-04-01T04:45:16.104Z,3.88
2023-04-01T04:48:28.188Z,6.38
2023-04-01T04:51:30.672Z,3.75
2023-04-01T04:54:33.411Z,3.15
2023-04-01T04:57:37.824Z,3.08
2023-04-01T05:00:40.545Z,4.53
2023-04-01T05:03:47.161Z,3.55
2023-04-01T05:06:50.744Z,4.82
2023-04-01T05:09:53.722Z,5.05
2023-04-01T05:12:56.309Z,4.45
2023-04-01T05:15:59.490Z,3.45
2023-04-01T05:19:02.320Z,5.32
2023-04-01T05:22:05.541Z,4.25
2023-04-01T05:25:08.408Z,4.63
2023-04-01T05:28:10.955Z,4.97
2023-04-01T05:31:13.768Z,4.68
2023-04-01T05:34:19.642Z,3.88
2023-04-01T05:37:23.969Z,4.22
2023-04-01T05:40:27.001Z,4.47
2023-04-01T05:43:30.864Z,4.32
2023-04-01T05:46:38.138Z,4.82
2023-04-01T05:49:48.084Z,3.95
2023-04-01T05:52:50.956Z,5.05
2023-04-01T05:55:53.744Z,4.38
2023-04-01T05:58:56.373Z,4.40
2023-04-01T06:02:00.232Z,3.63
2023-04-01T06:05:23.174Z,3.95
2023-04-01T06:08:26.414Z,4.63
2023-04-01T06:12:09.360Z,4.10
2023-04-01T06:15:26.600Z,4.95
2023-04-01T06:18:37.807Z,4.63
2023-04-01T06:21:56.988Z,3.40
2023-04-01T06:25:30.637Z,3.88
2023-04-01T06:28:58.869Z,3.53
2023-04-01T06:32:22.601Z,4.60
2023-04-01T06:35:47.439Z,3.42
2023-04-01T06:39:11.062Z,3.55
2023-04-01T06:42:38.841Z,4.75
2023-04-01T06:45:56.947Z,4.90
2023-04-01T06:49:36.723Z,3.58
2023-04-01T06:53:21.123Z,4.63
2023-04-01T06:56:43.750Z,3.15
2023-04-01T06:59:56.154Z,3.30
2023-04-01T07:03:17.411Z,2.78
2023-04-01T07:06:36.764Z,2.85
2023-04-01T07:09:41.340Z,3.03
2023-04-01T07:13:05.933Z,3.05
2023-04-01T07:16:41.007Z,2.90
2023-04-01T07:19:52.259Z,2.90
2023-04-01T07:23:03.737Z,2.55
2023-04-01T07:26:24.365Z,3.95
2023-04-01T07:29:38.776Z,2.90
2023-04-01T07:32:45.524Z,3.00
2023-04-01T07:36:12.187Z,1.88
2023-04-01T07:39:36.032Z,3.78
2023-04-01T07:43:02.667Z,3.85
2023-04-01T07:46:07.432Z,5.22
2023-04-01T07:49:15.511Z,3.10
2023-04-01T07:52:34.445Z,3.65
2023-04-01T07:55:51.460Z,2.75
2023-04-01T07:59:04.479Z,3.15
2023-04-01T08:02:36.125Z,2.20
2023-04-01T08:05:58.797Z,4.43
2023-04-01T08:09:05.715Z,3.08
2023-04-01T08:12:52.727Z,2.65
2023-04-01T08:16:23.164Z,2.13
2023-04-01T08:19:40.574Z,2.60
2023-04-01T08:22:44.634Z,3.55
2023-04-01T08:26:02.705Z,3.30
2023-04-01T08:29:18.658Z,2.60
2023-04-01T08:32:28.078Z,3.53
2023-04-01T08:35:38.297Z,4.55
2023-04-01T08:39:05.531Z,4.25
2023-04-01T08:42:37.661Z,1.88
2023-04-01T08:46:03.192Z,2.17
2023-04-01T08:49:18.315Z,2.72
2023-04-01T08:52:43.888Z,3.45
2023-04-01T08:56:26.712Z,2.50
2023-04-01T09:00:13.738Z,3.70
2023-04-01T09:03:46.734Z,3.05
2023-04-01T09:07:19.592Z,3.50
2023-04-01T09:10:25.914Z,3.20
2023-04-01T09:16:52.733Z,2.30
2023-04-01T09:20:26.047Z,3.15
2023-04-01T09:24:06.955Z,4.25
2023-04-01T09:27:41.586Z,4.10
2023-04-01T09:31:06.968Z,3.65
2023-04-01T09:34:37.199Z,2.58
2023-04-01T09:37:49.624Z,3.85
2023-04-01T09:40:58.892Z,1.85
2023-04-01T09:44:27.742Z,3.03
2023-04-01T09:48:08.178Z,2.75
2023-04-01T09:51:13.987Z,2.85
2023-04-01T09:54:48.788Z,3.65
2023-04-01T09:58:13.536Z,3.95
2023-04-01T10:05:20.664Z,3.65
2023-04-01T10:08:41.775Z,3.38
2023-04-01T10:11:50.625Z,2.88
2023-04-01T10:15:12.760Z,4.13
2023-04-01T10:18:26.886Z,4.00
2023-04-01T10:21:36.621Z,2.92
2023-04-01T10:25:13.425Z,4.38
2023-04-01T10:28:38.116Z,4.22
2023-04-01T10:31:59.219Z,6.07
2023-04-01T10:35:36.563Z,3.10
2023-04-01T10:38:40.038Z,5.82
2023-04-01T10:41:57.835Z,4.75
2023-04-01T10:45:52.267Z,3.00
2023-04-01T10:49:16.058Z,5.35
2023-04-01T10:52:39.525Z,4.53
2023-04-01T10:56:32.344Z,6.22
2023-04-01T11:00:18.895Z,4.28
2023-04-01T11:03:57.074Z,3.00
2023-04-01T11:07:55.828Z,3.53
2023-04-01T11:11:30.079Z,4.93
2023-04-01T11:14:54.848Z,3.28
2023-04-01T11:18:29.793Z,8.07
2023-04-01T11:22:10.783Z,7.13
2023-04-01T11:25:42.709Z,4.15
2023-04-01T11:29:10.290Z,5.70
2023-04-01T11:32:27.947Z,3.63
2023-04-01T11:35:44.166Z,4.15
2023-04-01T11:38:57.096Z,4.65
2023-04-01T11:42:38.495Z,3.88
2023-04-01T11:46:07.679Z,3.85
2023-04-01T11:49:24.516Z,2.83
2023-04-01T11:52:54.937Z,4.55
2023-04-01T11:56:20.206Z,4.35
2023-04-01T11:59:25.789Z,4.28
2023-04-01T12:02:51.647Z,4.18
2023-04-01T12:06:07.350Z,3.42
2023-04-01T12:09:10.082Z,4.20
2023-04-01T12:12:15.632Z,4.75
2023-04-01T12:15:38.066Z,2.90
2023-04-01T12:18:51.409Z,2.60
2023-04-01T12:22:23.124Z,3.20
2023-04-01T12:25:37.719Z,4.47
2023-04-01T12:29:17.903Z,3.53
2023-04-01T12:32:44.928Z,2.95
2023-04-01T12:36:19.737Z,3.70
2023-04-01T12:39:45.709Z,3.97
2023-04-01T12:43:03.509Z,5.68
2023-04-01T12:46:37.784Z,3.25
2023-04-01T12:49:40.384Z,2.80
2023-04-01T12:52:57.163Z,3.72
2023-04-01T12:55:59.877Z,4.10
2023-04-01T12:59:17.516Z,2.83
2023-04-01T13:07:47.625Z,6.20
2023-04-01T13:10:58.249Z,3.72
2023-04-01T13:14:03.744Z,3.35
2023-04-01T13:17:17.671Z,3.70
2023-04-01T13:21:07.111Z,3.72
2023-04-01T13:24:18.856Z,4.07
2023-04-01T13:27:31.092Z,4.45
2023-04-01T13:30:56.946Z,4.68
2023-04-01T13:34:11.551Z,3.05
2023-04-01T13:37:51.395Z,3.90
2023-04-01T13:41:10.527Z,2.78
2023-04-01T13:44:24.178Z,4.28
2023-04-01T13:47:48.040Z,3.15
2023-04-01T13:51:16.695Z,2.50
2023-04-01T13:54:44.144Z,2.80
2023-04-01T13:58:14.741Z,2.97
2023-04-01T14:01:34.090Z,2.47
2023-04-01T14:04:51.126Z,2.15
2023-04-01T14:08:05.763Z,3.00
2023-04-01T14:11:33.940Z,2.60
2023-04-01T14:15:07.524Z,3.70
2023-04-01T14:18:16.319Z,2.83
2023-04-01T14:21:25.036Z,3.33
2023-04-01T14:25:06.791Z,2.42
2023-04-01T14:28:31.112Z,4.20
2023-04-01T14:31:52.353Z,2.65
2023-04-01T14:35:01.329Z,2.60
2023-04-01T14:38:46.226Z,2.53
2023-04-01T14:42:21.398Z,1.60
2023-04-01T14:46:02.285Z,3.40
2023-04-01T14:49:42.909Z,3.58
2023-04-01T14:53:12.993Z,4.00
2023-04-01T14:56:15.583Z,4.40
2023-04-01T14:59:24.110Z,2.65
2023-04-01T15:02:45.488Z,3.90
2023-04-01T15:06:07.081Z,3.17
2023-04-01T15:09:16.813Z,2.78
2023-04-01T15:12:22.682Z,3.47
2023-04-01T15:15:31.761Z,3.53
2023-04-01T15:18:49.644Z,2.42
2023-04-01T15:21:55.174Z,2.58
2023-04-01T15:25:15.505Z,3.42
2023-04-01T15:28:27.383Z,3.00
2023-04-01T15:31:36.259Z,3.63
2023-04-01T15:34:43.034Z,2.97
2023-04-01T15:37:58.720Z,3.65
2023-04-01T15:41:30.824Z,3.15
2023-04-01T15:44:51.741Z,3.45
2023-04-01T15:47:54.339Z,3.85
2023-04-01T15:51:14.134Z,4.00
2023-04-01T15:54:34.262Z,3.05
2023-04-01T15:57:48.891Z,3.65
2023-04-01T16:00:58.286Z,3.65
2023-04-01T16:04:12.750Z,2.40
2023-04-01T16:07:39.647Z,3.53
2023-04-01T16:11:15.866Z,2.70
2023-04-01T16:14:40.836Z,3.05
2023-04-01T16:17:56.850Z,3.55
2023-04-01T16:21:01.770Z,2.60
2023-04-01T16:24:28.601Z,2.53
2023-04-01T16:27:38.253Z,3.88
2023-04-01T16:31:01.041Z,2.85
2023-04-01T16:34:09.812Z,3.35
2023-04-01T16:37:22.983Z,1.85
2023-04-01T16:40:37.556Z,2.10
2023-04-01T16:43:47.443Z,2.00
2023-04-01T16:46:58.044Z,1.92
2023-04-01T16:50:24.428Z,1.88
2023-04-01T16:53:55.107Z,4.00
2023-04-01T16:57:04.416Z,1.92
2023-04-01T17:03:26.220Z,2.78
2023-04-01T17:07:01.971Z,2.28
2023-04-01T17:10:25.972Z,2.58
2023-04-01T17:14:02.023Z,3.05
2023-04-01T17:17:33.367Z,3.90
2023-04-01T17:20:59.286Z,3.33
2023-04-01T17:24:19.985Z,5.25
2023-04-01T17:27:33.838Z,3.78
2023-04-01T17:30:44.375Z,2.35
2023-04-01T17:34:08.344Z,3.72
2023-04-01T17:37:25.936Z,3.67
2023-04-01T17:40:36.717Z,3.40
2023-04-01T17:43:45.290Z,3.67
2023-04-01T17:47:01.263Z,4.10
2023-04-01T17:50:06.588Z,3.97
2023-04-01T17:53:33.959Z,4.35
2023-04-01T17:57:04.201Z,3.95
2023-04-01T18:00:12.896Z,3.30
2023-04-01T18:03:40.597Z,4.65
2023-04-01T18:06:57.326Z,4.15
2023-04-01T18:10:24.880Z,3.97
2023-04-01T18:13:30.601Z,5.97
2023-04-01T18:17:17.619Z,6.78
2023-04-01T18:20:57.073Z,7.43
2023-04-01T18:24:02.693Z,8.68
2023-04-01T18:27:12.443Z,6.80
2023-04-01T18:30:36.675Z,6.38
2023-04-01T18:33:44.084Z,6.07
2023-04-01T18:37:05.559Z,5.40
2023-04-01T18:40:13.023Z,5.95
2023-04-01T18:43:24.328Z,7.32
2023-04-01T18:47:04.595Z,4.00
2023-04-01T18:50:22.451Z,4.28
2023-04-01T18:53:40.815Z,4.75
2023-04-01T18:56:44.300Z,4.70
2023-04-01T18:59:54.879Z,6.28
2023-04-01T19:03:22.294Z,5.82
2023-04-01T19:06:35.158Z,5.38
2023-04-01T19:09:50.587Z,7.78
2023-04-01T19:13:23.830Z,7.38
2023-04-01T19:16:39.206Z,6.53
2023-04-01T19:20:00.757Z,7.15
2023-04-01T19:23:29.350Z,8.48
2023-04-01T19:26:35.060Z,6.35
2023-04-01T19:29:57.316Z,7.82
2023-04-01T19:33:19.632Z,7.43
2023-04-01T19:36:46.379Z,8.18
2023-04-01T19:39:51.083Z,5.93
2023-04-01T19:43:15.060Z,6.85
2023-04-01T19:46:30.047Z,6.93
2023-04-01T19:49:56.380Z,7.03
2023-04-01T19:53:00.607Z,6.80
2023-04-01T19:56:13.706Z,6.13
2023-04-01T19:59:25.206Z,5.28
2023-04-01T20:02:31.331Z,7.55
2023-04-01T20:05:52.044Z,6.35
2023-04-01T20:09:21.969Z,6.07
2023-04-01T20:12:35.586Z,5.30
2023-04-01T20:15:40.891Z,5.40
2023-04-01T20:18:57.704Z,5.50
2023-04-01T20:22:01.666Z,5.25
2023-04-01T20:25:31.239Z,6.75
2023-04-01T20:29:12.256Z,6.07
2023-04-01T20:35:38.907Z,9.27
2023-04-01T20:39:00.017Z,6.38
2023-04-01T20:42:41.421Z,8.05
2023-04-01T20:45:52.945Z,7.28
2023-04-01T20:49:17.684Z,7.70
2023-04-01T20:52:32.085Z,9.55
2023-04-01T20:55:53.192Z,7.32
2023-04-01T20:59:20.554Z,13.60
2023-04-01T21:02:34.084Z,9.70
2023-04-01T21:06:07.631Z,10.75
2023-04-01T21:09:32.113Z,10.73
2023-04-01T21:13:12.067Z,8.52
2023-04-01T21:16:42.896Z,8.52
2023-04-01T21:20:10.638Z,9.07
2023-04-01T21:23:25.654Z,11.93
2023-04-01T21:26:54.373Z,14.35
2023-04-01T21:30:03.460Z,15.90
2023-04-01T21:33:12.113Z,21.10
2023-04-01T21:36:41.946Z,20.25
2023-04-01T21:39:54.122Z,23.05
2023-04-01T21:43:24.907Z,16.85
2023-04-01T21:46:46.244Z,19.35
2023-04-01T21:49:54.430Z,16.38
2023-04-01T21:53:38.370Z,16.83
2023-04-01T21:57:04.814Z,20.52
2023-04-01T22:00:39.580Z,16.30
2023-04-01T22:10:36.432Z,6.43
2023-04-01T22:13:50.558Z,6.35
2023-04-01T22:17:14.696Z,6.05
2023-04-01T22:20:33.401Z,5.13
2023-04-01T22:23:49.028Z,6.38
2023-04-01T22:27:02.944Z,4.72
2023-04-01T22:30:17.758Z,4.07
2023-04-01T22:33:26.360Z,5.45
2023-04-01T22:36:32.383Z,3.72
2023-04-01T22:39:56.420Z,4.32
2023-04-01T22:43:13.838Z,3.63
2023-04-01T22:46:31.736Z,3.83
2023-04-01T22:49:39.339Z,3.13
2023-04-01T22:52:46.912Z,2.75
2023-04-01T22:55:53.127Z,2.42
2023-04-01T22:59:07.497Z,2.78
2023-04-01T23:02:14.977Z,2.50
2023-04-01T23:05:19.675Z,2.97
2023-04-01T23:08:40.939Z,2.42
2023-04-01T23:12:06.550Z,2.30
2023-04-01T23:15:13.272Z,2.40
2023-04-01T23:18:37.444Z,2.45
2023-04-01T23:21:50.869Z,2.28
2023-04-01T23:25:01.988Z,2.67
2023-04-01T23:28:17.080Z,3.08
2023-04-01T23:31:36.899Z,2.35
2023-04-01T23:34:39.540Z,2.13
2023-04-01T23:37:42.080Z,3.20
2023-04-01T23:40:44.924Z,2.50
2023-04-01T23:43:47.337Z,2.83
2023-04-01T23:46:49.762Z,3.45
2023-04-01T23:49:53.296Z,2.58
2023-04-01T23:53:01.500Z,2.53
2023-04-01T23:56:04.072Z,2.67
2023-04-01T23:59:10.489Z,4.07
